Time;durP1;ratioP1;P1;durP2;ratioP2;P2;SDS_P1;SDS_P2;PMS_P1;PMS_P2;Temp;Humidity;BMP_temperature;BMP_pressure;BME280_temperature;BME280_humidity;BME280_pressure;Samples;Min_cycle;Max_cycle;Signal;HPM_P1;HPM_P2
2022/11/05 00:10:21;;;;;;;29.57;15.63;;;;;;;6.12;91.34;100551.12;1791096;79;21091;-60
2022/11/05 00:18:28;;;;;;;31.05;16.00;;;;;;;6.02;91.38;100545.31;1801284;79;21142;-60
2022/11/05 00:20:58;;;;;;;31.27;16.85;;;;;;;5.94;91.41;100545.28;1790058;80;21158;-61
2022/11/05 00:26:15;;;;;;;30.62;16.17;;;;;;;5.91;91.69;100546.13;1792756;79;21165;-61
2022/11/05 00:28:44;;;;;;;30.97;16.67;;;;;;;5.90;91.85;100550.70;1728717;82;21199;-60
2022/11/05 00:31:13;;;;;;;30.65;15.98;;;;;;;5.95;91.99;100548.86;1740058;82;21127;-62
2022/11/05 00:33:44;;;;;;;29.10;15.95;;;;;;;5.97;92.08;100549.03;1731172;82;21557;-61
2022/11/05 00:36:13;;;;;;;32.45;15.38;;;;;;;6.01;91.98;100552.28;1756631;80;21091;-62
2022/11/05 00:38:42;;;;;;;29.57;14.78;;;;;;;5.98;91.94;100549.37;1763328;80;21182;-60
2022/11/05 00:41:11;;;;;;;25.82;14.20;;;;;;;5.97;91.88;100545.47;1774603;80;21139;-61
2022/11/05 00:46:29;;;;;;;30.60;15.60;;;;;;;5.91;91.90;100542.04;1767149;80;21127;-61
2022/11/05 00:52:54;;;;;;;28.17;14.47;;;;;;;5.92;92.02;100543.23;1765775;80;21115;-60
2022/11/05 00:54:19;;;;;;;28.17;15.53;;;;;;;5.90;91.94;100538.47;1777452;80;21094;-63
2022/11/05 00:56:48;;;;;;;30.05;14.47;;;;;;;5.85;91.85;100544.88;1779389;80;21554;-61
2022/11/05 00:59:18;;;;;;;29.27;14.30;;;;;;;5.86;91.88;100547.09;1768520;80;21135;-61
2022/11/05 01:01:47;;;;;;;28.65;14.55;;;;;;;5.84;91.85;100539.06;1767684;80;21121;-63
2022/11/05 01:04:17;;;;;;;29.48;14.95;;;;;;;5.82;91.75;100541.09;1761751;80;21642;-61
2022/11/05 01:06:47;;;;;;;29.30;15.13;;;;;;;5.76;91.74;100546.34;1755029;80;21107;-61
2022/11/05 01:09:17;;;;;;;27.67;14.45;;;;;;;5.72;91.87;100553.96;1758194;80;21130;-61
2022/11/05 01:11:47;;;;;;;25.40;13.53;;;;;;;5.70;91.99;100558.71;1760498;80;22330;-62
2022/11/05 01:14:16;;;;;;;26.73;14.30;;;;;;;5.69;92.00;100564.66;1766828;80;21135;-61
2022/11/05 01:16:45;;;;;;;26.68;14.43;;;;;;;5.66;91.96;100558.69;1767723;80;21079;-63
2022/11/05 01:19:14;;;;;;;31.48;14.85;;;;;;;5.59;91.98;100556.28;1779664;80;21174;-61
2022/11/05 01:21:45;;;;;;;29.95;14.73;;;;;;;5.55;92.21;100552.17;1769983;80;21539;-62
2022/11/05 01:24:14;;;;;;;29.18;15.05;;;;;;;5.57;92.43;100552.88;1779495;80;21142;-61
2022/11/05 01:26:44;;;;;;;27.58;14.30;;;;;;;5.62;92.69;100550.52;1765360;80;21194;-60
2022/11/05 01:29:13;;;;;;;28.42;14.38;;;;;;;5.64;92.85;100555.28;1769400;79;21092;-62
2022/11/05 01:31:42;;;;;;;25.88;13.85;;;;;;;5.69;93.10;100550.20;1776515;79;21155;-60
2022/11/05 01:34:12;;;;;;;29.50;15.00;;;;;;;5.73;93.30;100551.08;1736179;82;21609;-64
2022/11/05 01:36:41;;;;;;;23.80;13.70;;;;;;;5.78;93.46;100553.31;1790613;79;21116;-63
2022/11/05 01:39:09;;;;;;;25.65;12.85;;;;;;;5.82;93.58;100553.33;1774251;81;21191;-62
2022/11/05 01:41:39;;;;;;;25.27;13.50;;;;;;;5.86;93.65;100560.69;1778340;79;21111;-61
2022/11/05 01:44:51;;;;;;;26.23;13.98;;;;;;;5.90;93.70;100556.66;1774539;81;21103;-59
2022/11/05 01:47:28;;;;;;;26.68;13.22;;;;;;;5.94;93.80;100568.91;1774587;79;21335;-60
2022/11/05 01:50:02;;;;;;;26.60;13.68;;;;;;;5.93;93.83;100563.98;1774611;79;21131;-59
2022/11/05 01:52:32;;;;;;;25.25;13.03;;;;;;;5.94;93.89;100567.04;1774528;81;21124;-60
2022/11/05 01:55:03;;;;;;;25.30;13.65;;;;;;;5.94;93.95;100566.19;1779303;79;21182;-60
2022/11/05 01:57:35;;;;;;;24.43;13.25;;;;;;;5.96;93.97;100567.73;1791755;79;21099;-61
2022/11/05 02:00:06;;;;;;;22.95;12.85;;;;;;;5.96;93.81;100565.52;1787767;79;21578;-61
2022/11/05 02:02:37;;;;;;;27.62;13.65;;;;;;;5.95;93.83;100567.89;1739344;82;21148;-64
2022/11/05 02:05:10;;;;;;;27.10;13.45;;;;;;;5.93;93.75;100569.41;1778881;79;21127;-61
2022/11/05 02:07:40;;;;;;;25.00;14.30;;;;;;;5.88;93.65;100570.38;1785785;79;21143;-62
2022/11/05 02:10:12;;;;;;;27.30;14.07;;;;;;;5.84;93.65;100570.84;1736711;82;21178;-61
2022/11/05 02:12:46;;;;;;;25.32;12.82;;;;;;;5.84;93.69;100568.13;1780633;79;21139;-63
2022/11/05 02:15:47;;;;;;;26.75;14.00;;;;;;;5.82;93.68;100564.72;1787471;79;21559;-62
2022/11/05 02:18:37;;;;;;;23.15;13.48;;;;;;;5.83;93.73;100569.14;1774730;79;21594;-60
2022/11/05 02:21:26;;;;;;;28.32;14.75;;;;;;;5.82;93.76;100573.72;1770252;79;21115;-61
2022/11/05 02:24:29;;;;;;;26.62;14.47;;;;;;;5.81;93.72;100573.38;1774362;81;21087;-61
2022/11/05 02:27:15;;;;;;;28.38;14.00;;;;;;;5.76;93.60;100570.30;1778807;79;21111;-60
2022/11/05 02:30:04;;;;;;;26.02;12.93;;;;;;;5.75;93.60;100568.59;1774216;80;21108;-60
2022/11/05 02:32:59;;;;;;;26.55;13.80;;;;;;;5.73;93.39;100570.62;1792857;79;21142;-61
2022/11/05 02:35:54;;;;;;;26.70;13.80;;;;;;;5.70;93.37;100572.30;1709460;82;21113;-61
2022/11/05 02:38:41;;;;;;;25.00;12.68;;;;;;;5.68;93.40;100570.25;1774484;81;21163;-62
2022/11/05 02:41:49;;;;;;;26.07;12.50;;;;;;;5.62;93.35;100568.19;1700477;81;21246;-60
2022/11/05 02:44:33;;;;;;;27.17;12.93;;;;;;;5.58;93.43;100559.50;1774612;79;21170;-61
2022/11/05 02:47:53;;;;;;;23.30;11.45;;;;;;;5.58;93.37;100551.85;1774561;79;21112;-60
2022/11/05 02:50:39;;;;;;;26.30;12.45;;;;;;;5.58;93.25;100553.21;1774271;81;21092;-61
2022/11/05 02:53:15;;;;;;;22.70;11.65;;;;;;;5.53;93.23;100548.77;1774839;79;21127;-61
2022/11/05 02:55:58;;;;;;;22.37;11.38;;;;;;;5.47;93.24;100554.84;1775009;79;21143;-60
2022/11/05 02:58:29;;;;;;;23.00;10.45;;;;;;;5.43;93.30;100548.03;1787182;79;21642;-62
2022/11/05 03:01:02;;;;;;;25.72;12.30;;;;;;;5.40;93.46;100551.42;1786309;79;21585;-61
2022/11/05 03:03:45;;;;;;;24.02;12.00;;;;;;;5.39;93.48;100556.50;1774306;81;21573;-60
2022/11/05 03:06:53;;;;;;;25.55;12.20;;;;;;;5.37;93.52;100555.81;1800382;79;21115;-61
2022/11/05 03:09:31;;;;;;;24.77;12.50;;;;;;;5.38;93.66;100567.03;1774699;79;21147;-61
2022/11/05 03:12:21;;;;;;;;;;;;;;;5.37;93.81;100564.47;1779297;79;21155;-61
2022/11/05 03:15:32;;;;;;;23.83;10.72;;;;;;;5.36;93.89;100561.41;1768894;81;20152;-60
2022/11/05 03:18:21;;;;;;;22.50;12.30;;;;;;;5.34;93.98;100562.08;1714027;82;21188;-61
2022/11/05 03:21:02;;;;;;;25.45;12.15;;;;;;;5.36;94.12;100567.70;1719600;82;21671;-62
2022/11/05 03:23:46;;;;;;;23.83;11.45;;;;;;;5.33;94.08;100563.94;1731798;80;21524;-60
2022/11/05 03:26:35;;;;;;;19.27;10.58;;;;;;;5.33;94.28;100561.73;1774328;79;21588;-62
2022/11/05 03:29:08;;;;;;;22.17;11.53;;;;;;;5.33;94.21;100571.23;1774273;80;21166;-61
2022/11/05 03:31:38;;;;;;;18.75;10.43;;;;;;;5.33;94.32;100582.11;1787535;79;21120;-61
2022/11/05 03:34:07;;;;;;;25.72;11.55;;;;;;;5.35;94.33;100576.86;1774523;79;21135;-61
2022/11/05 03:36:41;;;;;;;20.92;11.03;;;;;;;5.36;94.26;100578.56;1778371;79;21095;-60
2022/11/05 03:39:15;;;;;;;21.50;10.93;;;;;;;5.33;94.25;100581.60;1774542;79;21158;-61
2022/11/05 03:41:44;;;;;;;20.82;10.15;;;;;;;5.34;94.25;100581.09;1774466;80;21113;-61
2022/11/05 03:44:15;;;;;;;20.25;10.72;;;;;;;5.36;94.31;100581.28;1774452;81;21107;-60
2022/11/05 03:46:48;;;;;;;18.75;10.88;;;;;;;5.35;94.34;100578.22;1774575;79;21162;-63
2022/11/05 03:49:31;;;;;;;22.52;10.55;;;;;;;5.37;94.37;100583.49;1787734;79;21516;-61
2022/11/05 03:52:18;;;;;;;22.02;10.65;;;;;;;5.38;94.37;100594.70;1728693;82;21199;-61
2022/11/05 03:54:48;;;;;;;18.75;10.08;;;;;;;5.37;94.44;100592.50;1772566;80;21143;-61
2022/11/05 03:57:24;;;;;;;18.75;10.48;;;;;;;5.40;94.48;100601.69;1774144;81;21103;-59
2022/11/05 03:59:54;;;;;;;18.02;10.43;;;;;;;5.41;94.51;100598.46;1774885;79;21544;-60
2022/11/05 04:02:25;;;;;;;22.27;11.55;;;;;;;5.45;94.71;100599.00;1787344;79;21581;-61
2022/11/05 04:04:55;;;;;;;20.95;10.15;;;;;;;5.47;94.79;100602.41;1753253;80;21096;-60
2022/11/05 04:18:39;;;;;;;22.05;11.10;;;;;;;5.67;96.24;100599.81;1794965;79;21123;-61
2022/11/05 04:24:08;;;;;;;21.82;9.13;;;;;;;5.82;96.84;100601.42;1774305;81;21290;-61
2022/11/05 04:26:40;;;;;;;22.37;9.78;;;;;;;5.89;97.10;100602.50;1774465;79;21158;-61
2022/11/05 04:31:58;;;;;;;15.60;8.45;;;;;;;5.98;97.46;100613.30;1787411;79;21087;-61
2022/11/05 04:34:29;;;;;;;13.95;7.65;;;;;;;6.03;97.58;100613.66;1787409;79;21107;-62
2022/11/05 04:36:59;;;;;;;18.87;8.23;;;;;;;6.08;97.56;100621.33;1774350;81;21623;-60
2022/11/05 04:39:28;;;;;;;17.35;9.15;;;;;;;6.10;97.56;100623.37;1774450;79;21166;-64
2022/11/05 04:41:57;;;;;;;18.42;8.78;;;;;;;6.12;97.59;100628.66;1774457;81;21139;-61
2022/11/05 04:44:27;;;;;;;19.73;8.88;;;;;;;6.16;97.66;100627.31;1774307;81;21544;-62
2022/11/05 04:46:57;;;;;;;15.90;8.45;;;;;;;6.20;97.63;100624.61;1774459;79;21107;-61
2022/11/05 04:49:28;;;;;;;16.55;8.55;;;;;;;6.22;97.49;100641.11;1774573;79;21115;-65
2022/11/05 04:51:58;;;;;;;15.32;8.00;;;;;;;6.24;97.31;100644.52;1774753;79;21147;-61
2022/11/05 04:54:27;;;;;;;15.25;8.75;;;;;;;6.22;97.21;100642.47;1789128;79;21115;-63
2022/11/05 04:56:57;;;;;;;13.03;7.83;;;;;;;6.23;97.22;100638.73;1774439;79;21528;-61
2022/11/05 04:59:26;;;;;;;14.00;8.35;;;;;;;6.25;97.16;100646.73;1774299;79;21139;-61
2022/11/05 05:01:56;;;;;;;14.28;8.80;;;;;;;6.26;97.13;100654.73;1787518;79;21131;-62
2022/11/05 05:04:25;;;;;;;12.75;8.23;;;;;;;6.27;96.98;100651.50;1774226;81;21574;-61
2022/11/05 05:06:55;;;;;;;15.23;8.63;;;;;;;6.25;96.92;100654.38;1774469;79;21182;-61
2022/11/05 05:09:24;;;;;;;16.00;8.78;;;;;;;6.24;96.91;100660.84;1774319;79;21116;-60
2022/11/05 05:11:52;;;;;;;15.18;8.98;;;;;;;6.21;96.86;100657.09;1774362;81;21178;-61
2022/11/05 05:14:21;;;;;;;15.48;9.48;;;;;;;6.22;96.93;100660.16;1774204;81;21150;-61
2022/11/05 05:16:52;;;;;;;14.60;8.38;;;;;;;6.24;96.94;100664.07;1777765;79;21175;-62
2022/11/05 05:19:25;;;;;;;17.15;9.70;;;;;;;6.27;97.03;100678.71;1726833;82;21181;-61
2022/11/05 05:21:55;;;;;;;16.85;9.18;;;;;;;6.29;97.01;100682.13;1777330;79;21166;-63
2022/11/05 05:24:24;;;;;;;16.23;9.58;;;;;;;6.30;97.01;100684.68;1787194;79;21103;-62
2022/11/05 05:26:54;;;;;;;16.42;9.68;;;;;;;6.31;96.88;100684.17;1777634;79;21597;-61
2022/11/05 05:29:23;;;;;;;18.92;10.15;;;;;;;6.30;96.89;100684.68;1777225;79;21114;-61
2022/11/05 05:31:54;;;;;;;18.30;10.32;;;;;;;6.26;96.88;100687.38;1781505;79;21111;-61
2022/11/05 05:34:23;;;;;;;17.35;9.40;;;;;;;6.27;97.15;100694.53;1776802;80;21119;-60
2022/11/05 05:36:53;;;;;;;18.62;10.23;;;;;;;6.32;97.32;100691.32;1711570;83;21605;-62
2022/11/05 05:39:22;;;;;;;20.95;10.88;;;;;;;6.38;97.32;100696.11;1787213;80;21533;-62
2022/11/05 05:41:52;;;;;;;17.98;10.60;;;;;;;6.40;97.23;100695.95;1776066;80;21628;-61
2022/11/05 05:44:22;;;;;;;20.52;11.33;;;;;;;6.38;97.30;100699.34;1747497;81;21159;-61
2022/11/05 05:46:54;;;;;;;19.98;10.82;;;;;;;6.39;97.39;100699.17;1790034;79;21112;-61
2022/11/05 05:49:23;;;;;;;20.75;10.80;;;;;;;6.43;97.52;100703.27;1771777;80;21593;-61
2022/11/05 05:51:52;;;;;;;17.75;10.38;;;;;;;6.47;97.55;100703.29;1772504;80;21167;-61
2022/11/05 05:54:22;;;;;;;19.70;10.23;;;;;;;6.51;97.59;100701.98;1782694;80;21109;-63
2022/11/05 05:56:53;;;;;;;19.37;10.63;;;;;;;6.52;97.65;100703.69;1772007;80;21131;-62
2022/11/05 05:59:23;;;;;;;16.75;9.68;;;;;;;6.56;97.80;100702.84;1767636;80;21605;-60
2022/11/05 06:01:52;;;;;;;17.20;10.13;;;;;;;6.61;97.93;100705.42;1775958;80;21143;-66
2022/11/05 06:04:21;;;;;;;18.45;9.70;;;;;;;6.67;97.96;100706.12;1777590;80;21126;-62
2022/11/05 06:06:51;;;;;;;15.18;9.33;;;;;;;6.74;97.98;100710.91;1772071;80;21104;-62
2022/11/05 06:09:20;;;;;;;16.52;9.93;;;;;;;6.78;97.94;100719.09;1790723;80;21563;-61
2022/11/05 06:11:50;;;;;;;16.93;9.78;;;;;;;6.82;97.94;100719.10;1779939;80;21095;-62
2022/11/05 06:14:19;;;;;;;15.28;9.38;;;;;;;6.87;97.80;100724.91;1779629;80;21151;-62
2022/11/05 06:16:50;;;;;;;17.90;10.08;;;;;;;6.88;97.63;100717.08;1783723;80;21083;-61
2022/11/05 06:19:20;;;;;;;17.73;10.28;;;;;;;6.93;97.55;100726.96;1788143;80;21091;-60
2022/11/05 06:21:48;;;;;;;20.52;10.90;;;;;;;6.93;97.40;100733.27;1776863;80;21159;-61
2022/11/05 06:24:17;;;;;;;21.30;10.75;;;;;;;6.93;97.24;100737.86;1789309;80;21147;-61
2022/11/05 06:26:47;;;;;;;19.62;10.18;;;;;;;6.92;97.17;100737.52;1713649;83;21567;-61
2022/11/05 06:29:17;;;;;;;18.92;10.38;;;;;;;6.90;97.14;100744.49;1776435;80;21123;-61
2022/11/05 06:31:47;;;;;;;17.95;10.45;;;;;;;6.90;97.18;100749.94;1775466;79;21146;-61
2022/11/05 06:34:18;;;;;;;17.80;10.38;;;;;;;6.91;97.16;100743.47;1774287;81;21636;-62
2022/11/05 06:36:47;;;;;;;19.35;10.25;;;;;;;6.90;97.02;100745.00;1784728;79;21112;-61
2022/11/05 06:39:17;;;;;;;17.32;9.88;;;;;;;6.84;97.04;100741.58;1774675;79;21112;-60
2022/11/05 06:41:46;;;;;;;18.40;9.85;;;;;;;6.83;97.15;100746.68;1774447;81;21119;-62
2022/11/05 06:44:18;;;;;;;18.52;9.83;;;;;;;6.83;97.14;100745.31;1784814;79;21573;-63
2022/11/05 06:46:48;;;;;;;19.48;10.85;;;;;;;6.84;97.31;100738.34;1774207;81;21752;-60
2022/11/05 06:49:17;;;;;;;20.12;11.35;;;;;;;6.87;97.36;100746.69;1774587;79;21149;-60
2022/11/05 06:51:46;;;;;;;20.80;11.35;;;;;;;6.88;97.47;100751.12;1774628;79;21115;-61
2022/11/05 06:54:15;;;;;;;20.35;10.70;;;;;;;6.91;97.67;100745.34;1776578;79;21076;-62
2022/11/05 06:56:45;;;;;;;19.73;11.35;;;;;;;6.92;97.62;100749.27;1784526;79;21151;-63
2022/11/05 06:59:16;;;;;;;20.45;10.88;;;;;;;6.96;97.67;100754.72;1774460;79;21158;-62
2022/11/05 07:01:45;;;;;;;19.67;11.73;;;;;;;7.01;97.76;100747.41;1774349;81;21107;-61
2022/11/05 07:04:16;;;;;;;22.02;11.18;;;;;;;7.08;97.79;100748.97;1774322;81;21505;-61
2022/11/05 07:06:44;;;;;;;19.75;10.98;;;;;;;7.08;97.65;100749.81;1774329;79;21115;-61
2022/11/05 07:09:17;;;;;;;18.95;10.70;;;;;;;7.09;97.52;100758.34;1774361;79;21162;-62
2022/11/05 07:11:47;;;;;;;17.20;9.90;;;;;;;7.09;97.32;100762.42;1774254;81;21115;-62
2022/11/05 07:14:16;;;;;;;18.57;10.23;;;;;;;7.10;97.21;100763.27;1775178;79;21149;-64
2022/11/05 07:16:46;;;;;;;17.52;9.60;;;;;;;7.11;97.07;100777.24;1774394;81;21099;-62
2022/11/05 07:19:15;;;;;;;18.67;10.40;;;;;;;7.12;96.85;100778.44;1774327;81;21146;-63
2022/11/05 07:21:44;;;;;;;19.87;11.00;;;;;;;7.10;96.75;100780.48;1776681;79;21127;-60
2022/11/05 07:24:14;;;;;;;19.30;10.40;;;;;;;7.13;96.68;100779.29;1726563;82;21127;-61
2022/11/05 07:26:43;;;;;;;18.37;10.80;;;;;;;7.11;96.52;100783.55;1778714;79;21131;-60
2022/11/05 07:29:13;;;;;;;20.12;10.45;;;;;;;7.12;96.51;100782.52;1774260;81;21162;-62
2022/11/05 07:31:42;;;;;;;18.02;10.55;;;;;;;7.17;96.51;100791.09;1774516;79;21162;-64
2022/11/05 07:34:12;;;;;;;17.73;10.68;;;;;;;7.20;96.48;100792.63;1787468;79;21139;-62
2022/11/05 07:36:41;;;;;;;19.30;11.15;;;;;;;7.22;96.50;100785.99;1774137;81;21164;-61
2022/11/05 07:39:10;;;;;;;20.32;10.93;;;;;;;7.22;96.24;100779.17;1774521;79;21103;-62
2022/11/05 07:41:39;;;;;;;19.70;10.78;;;;;;;7.21;96.21;100777.47;1785282;79;21153;-61
2022/11/05 07:44:10;;;;;;;17.82;10.78;;;;;;;7.24;96.13;100781.23;1776775;79;21111;-62
2022/11/05 07:46:41;;;;;;;22.40;11.53;;;;;;;7.24;96.02;100779.86;1774196;79;21119;-62
2022/11/05 07:49:10;;;;;;;20.45;10.98;;;;;;;7.25;95.99;100775.27;1774199;79;21135;-62
2022/11/05 07:51:39;;;;;;;20.90;10.88;;;;;;;7.24;95.94;100778.50;1782304;79;21154;-62
2022/11/05 07:54:11;;;;;;;23.62;11.85;;;;;;;7.25;96.00;100772.54;1727014;82;21174;-60
2022/11/05 07:56:40;;;;;;;19.98;10.55;;;;;;;7.29;95.98;100780.72;1798753;79;21127;-62
2022/11/05 07:59:10;;;;;;;19.45;10.85;;;;;;;7.28;95.80;100775.78;1774590;81;21120;-61
2022/11/05 08:01:39;;;;;;;21.85;12.73;;;;;;;7.29;95.83;100776.13;1774457;79;21100;-63
2022/11/05 08:04:08;;;;;;;22.52;12.03;;;;;;;7.29;95.77;100769.31;1787972;79;21150;-62
2022/11/05 08:06:39;;;;;;;21.95;12.68;;;;;;;7.29;95.71;100769.31;1781391;79;21147;-61
2022/11/05 08:09:10;;;;;;;21.75;12.18;;;;;;;7.26;95.76;100777.83;1776858;81;21131;-60
2022/11/05 08:11:40;;;;;;;22.87;13.35;;;;;;;7.26;95.94;100773.73;1776365;79;21135;-62
2022/11/05 08:14:09;;;;;;;20.85;12.40;;;;;;;7.31;96.03;100784.14;1774508;81;21572;-62
2022/11/05 08:16:38;;;;;;;21.37;12.88;;;;;;;7.29;95.91;100790.27;1785511;79;21186;-63
2022/11/05 08:19:09;;;;;;;20.82;12.43;;;;;;;7.29;95.87;100802.53;1787502;79;21060;-61
2022/11/05 08:21:41;;;;;;;23.87;12.55;;;;;;;7.26;95.86;100795.53;1774621;79;21158;-61
2022/11/05 08:24:11;;;;;;;19.85;11.38;;;;;;;7.22;95.77;100798.25;1774486;79;21578;-62
2022/11/05 08:26:40;;;;;;;18.27;11.18;;;;;;;7.19;95.72;100801.82;1774515;79;21628;-64
2022/11/05 08:29:09;;;;;;;18.73;11.33;;;;;;;7.18;95.73;100809.14;1709244;82;21187;-62
2022/11/05 08:31:39;;;;;;;18.87;11.12;;;;;;;7.15;95.66;100819.02;1774328;80;21147;-61
2022/11/05 08:34:08;;;;;;;20.10;11.53;;;;;;;7.14;95.67;100816.42;1774233;81;21163;-60
2022/11/05 08:36:40;;;;;;;18.65;10.88;;;;;;;7.18;95.81;100821.41;1784836;79;21146;-61
2022/11/05 08:39:09;;;;;;;16.35;10.13;;;;;;;7.20;95.74;100823.97;1775487;79;21151;-61
2022/11/05 08:41:41;;;;;;;18.20;10.35;;;;;;;7.20;95.31;100821.24;1774220;79;21115;-60
2022/11/05 08:44:11;;;;;;;19.37;11.08;;;;;;;7.13;95.04;100819.66;1774600;79;21149;-62
2022/11/05 08:46:40;;;;;;;18.70;10.60;;;;;;;7.07;95.06;100814.86;1774336;79;21099;-61
2022/11/05 08:49:11;;;;;;;19.77;11.25;;;;;;;7.03;95.14;100824.39;1777311;79;21171;-62
2022/11/05 08:51:43;;;;;;;18.27;10.30;;;;;;;7.01;95.33;100830.51;1789525;79;21174;-63
2022/11/05 08:54:13;;;;;;;18.75;10.98;;;;;;;7.02;95.27;100844.98;1777564;79;21183;-62
2022/11/05 08:56:44;;;;;;;20.30;10.53;;;;;;;6.97;95.36;100843.61;1774423;81;21127;-63
2022/11/05 08:59:13;;;;;;;20.12;11.35;;;;;;;7.01;95.65;100844.13;1774041;81;21186;-63
2022/11/05 09:01:43;;;;;;;19.73;10.98;;;;;;;7.01;95.63;100846.86;1774751;79;21151;-65
2022/11/05 09:04:13;;;;;;;21.30;11.65;;;;;;;7.04;95.80;100851.98;1774090;81;21127;-63
2022/11/05 09:06:42;;;;;;;20.52;11.43;;;;;;;7.08;95.99;100849.78;1741164;81;21617;-63
2022/11/05 09:09:11;;;;;;;19.70;11.63;;;;;;;7.12;95.99;100851.16;1774350;79;21138;-62
2022/11/05 09:11:42;;;;;;;24.50;13.93;;;;;;;7.12;96.12;100846.56;1775124;79;21163;-62
2022/11/05 09:14:14;;;;;;;21.20;11.80;;;;;;;7.19;96.34;100854.45;1784150;79;21100;-63
2022/11/05 09:16:43;;;;;;;26.25;13.72;;;;;;;7.21;96.20;100852.92;1787322;79;21115;-63
2022/11/05 09:19:13;;;;;;;25.88;13.18;;;;;;;7.23;96.26;100849.02;1774188;79;21151;-63
2022/11/05 09:21:42;;;;;;;21.17;10.95;;;;;;;7.26;96.13;100848.69;1776220;79;21195;-62
2022/11/05 09:24:11;;;;;;;18.98;10.78;;;;;;;7.24;95.79;100843.91;1724845;82;21202;-63
2022/11/05 09:26:41;;;;;;;19.82;11.80;;;;;;;7.19;95.82;100846.79;1774770;79;21187;-61
2022/11/05 09:29:11;;;;;;;23.15;12.45;;;;;;;7.19;96.01;100844.06;1774144;79;21575;-62
2022/11/05 09:31:41;;;;;;;20.25;11.70;;;;;;;7.20;96.00;100847.13;1778156;79;21134;-61
2022/11/05 09:34:11;;;;;;;22.62;12.25;;;;;;;7.17;96.02;100841.50;1775699;80;21147;-61
2022/11/05 09:36:40;;;;;;;19.17;11.28;;;;;;;7.16;96.01;100854.78;1787092;80;21555;-62
2022/11/05 09:39:13;;;;;;;22.62;12.98;;;;;;;7.14;96.04;100848.61;1768224;80;21163;-63
2022/11/05 09:41:43;;;;;;;24.47;13.38;;;;;;;7.17;96.26;100849.68;1780074;80;21547;-62
2022/11/05 09:44:19;;;;;;;20.95;12.70;;;;;;;7.13;96.20;100849.63;1775913;80;21549;-61
2022/11/05 09:46:59;;;;;;;24.50;12.65;;;;;;;7.11;96.32;100863.92;1787191;80;21115;-61
2022/11/05 09:49:38;;;;;;;21.07;12.45;;;;;;;7.10;96.33;100853.19;1795716;80;21127;-61
2022/11/05 09:52:29;;;;;;;24.18;12.28;;;;;;;7.09;96.43;100849.61;1792923;80;21102;-63
2022/11/05 09:54:59;;;;;;;22.70;12.88;;;;;;;7.12;96.54;100851.16;1776173;80;21138;-63
2022/11/05 09:57:46;;;;;;;21.45;12.60;;;;;;;7.13;96.54;100845.55;1780797;80;21548;-66
2022/11/05 10:00:16;;;;;;;22.77;12.10;;;;;;;7.10;96.53;100848.59;1743093;80;21150;-64
2022/11/05 10:02:58;;;;;;;22.52;11.85;;;;;;;7.13;96.54;100845.55;1771682;80;21202;-62
2022/11/05 10:05:27;;;;;;;20.55;11.80;;;;;;;7.11;96.41;100844.00;1790405;79;21115;-63
2022/11/05 10:08:08;;;;;;;19.60;11.75;;;;;;;7.14;96.68;100852.70;1773831;80;21127;-61
2022/11/05 10:10:45;;;;;;;22.10;12.25;;;;;;;7.18;96.62;100854.62;1787739;79;21111;-62
2022/11/05 10:13:35;;;;;;;20.88;12.00;;;;;;;7.18;96.58;100858.20;1696492;83;21159;-61
2022/11/05 10:16:29;;;;;;;20.52;11.38;;;;;;;7.20;96.52;100858.03;1727552;82;21190;-62
2022/11/05 10:19:20;;;;;;;18.42;10.75;;;;;;;7.21;96.42;100867.41;1694129;83;21562;-64
2022/11/05 10:21:47;;;;;;;23.85;12.13;;;;;;;7.18;96.16;100870.46;1782311;80;21528;-61
2022/11/05 10:24:19;;;;;;;20.08;11.97;;;;;;;7.14;96.18;100867.69;1715182;83;21568;-65
2022/11/05 10:26:52;;;;;;;20.50;11.75;;;;;;;7.16;96.20;100868.92;1777961;80;21150;-64
2022/11/05 10:29:28;;;;;;;17.27;10.18;;;;;;;7.15;96.21;100872.62;1773757;80;21100;-62
2022/11/05 10:31:58;;;;;;;22.50;11.22;;;;;;;7.15;96.05;100878.08;1787506;80;21248;-61
2022/11/05 10:34:31;;;;;;;17.82;10.03;;;;;;;7.13;95.86;100863.77;1797514;79;21150;-62
2022/11/05 10:37:01;;;;;;;20.97;11.03;;;;;;;7.08;95.86;100859.31;1734664;82;21173;-64
2022/11/05 10:39:31;;;;;;;21.17;10.72;;;;;;;7.07;95.89;100858.97;1747383;82;21148;-63
2022/11/05 10:42:25;;;;;;;17.35;9.85;;;;;;;7.08;95.94;100859.31;1700579;83;21162;-62
2022/11/05 10:45:18;;;;;;;19.98;10.55;;;;;;;7.10;95.97;100866.81;1727325;82;21617;-65
2022/11/05 10:48:06;;;;;;;20.48;10.55;;;;;;;7.09;95.92;100874.14;1733986;81;21198;-64
2022/11/05 10:50:35;;;;;;;21.73;11.70;;;;;;;7.06;95.80;100877.19;1727306;81;21186;-62
2022/11/05 10:53:14;;;;;;;19.17;10.30;;;;;;;7.03;95.83;100879.39;1727379;82;21223;-63
2022/11/05 10:55:48;;;;;;;18.05;10.13;;;;;;;7.04;95.98;100877.86;1735186;82;21410;-64
2022/11/05 10:58:39;;;;;;;23.52;11.20;;;;;;;7.05;96.02;100878.20;1729840;82;21170;-64
2022/11/05 11:01:10;;;;;;;21.80;10.98;;;;;;;7.07;95.94;100884.34;1738884;81;21122;-63
2022/11/05 11:03:51;;;;;;;20.27;11.08;;;;;;;7.05;95.95;100889.11;1738521;82;21582;-63
2022/11/05 11:06:26;;;;;;;22.17;10.38;;;;;;;7.08;96.13;100890.65;1740854;81;21157;-64
2022/11/05 11:09:01;;;;;;;18.15;10.60;;;;;;;7.14;96.21;100900.89;1735096;82;21345;-62
2022/11/05 11:11:40;;;;;;;21.82;11.08;;;;;;;7.18;96.08;100901.80;1734286;82;21618;-62
2022/11/05 11:14:16;;;;;;;20.45;11.22;;;;;;;7.20;95.89;100890.23;1703803;83;21180;-63
2022/11/05 11:16:49;;;;;;;19.00;10.32;;;;;;;7.20;95.84;100882.05;1703758;83;21237;-62
2022/11/05 11:19:35;;;;;;;19.35;10.08;;;;;;;7.19;95.55;100869.44;1687398;83;21124;-63
2022/11/05 11:22:10;;;;;;;20.55;10.23;;;;;;;7.18;95.44;100875.06;1697306;83;21151;-64
2022/11/05 11:24:52;;;;;;;18.12;9.98;;;;;;;7.21;95.49;100874.73;1723933;83;21119;-64
2022/11/05 11:27:27;;;;;;;19.05;10.45;;;;;;;7.24;95.50;100869.80;1681303;83;21406;-64
2022/11/05 11:30:03;;;;;;;22.27;10.72;;;;;;;7.24;95.39;100873.03;1701607;83;21594;-62
2022/11/05 11:32:35;;;;;;;20.55;10.63;;;;;;;7.24;95.34;100879.85;1685722;84;21119;-63
2022/11/05 11:35:09;;;;;;;19.55;10.03;;;;;;;7.25;95.24;100886.50;1703181;83;21185;-63
2022/11/05 11:37:47;;;;;;;18.52;10.20;;;;;;;7.26;95.11;100895.53;1701783;83;21200;-62
2022/11/05 11:40:20;;;;;;;21.27;10.95;;;;;;;7.27;95.09;100894.00;1740313;81;21234;-64
2022/11/05 11:42:54;;;;;;;20.02;10.65;;;;;;;7.29;95.10;100897.42;1731157;82;21145;-62
2022/11/05 11:45:34;;;;;;;21.35;10.88;;;;;;;7.30;94.97;100900.48;1738856;81;21142;-61
2022/11/05 11:48:09;;;;;;;17.48;9.70;;;;;;;7.31;94.89;100910.38;1733686;82;21139;-64
2022/11/05 11:50:41;;;;;;;18.57;10.20;;;;;;;7.31;94.72;100909.01;1722826;83;21131;-62
2022/11/05 11:53:32;;;;;;;18.45;10.05;;;;;;;7.30;94.69;100895.55;1732784;81;21648;-62
2022/11/05 11:56:07;;;;;;;22.82;10.63;;;;;;;7.33;94.76;100888.41;1730357;83;21197;-63
2022/11/05 11:58:44;;;;;;;20.48;10.75;;;;;;;7.36;94.66;100881.77;1730052;81;21575;-63
2022/11/05 12:01:46;;;;;;;20.45;10.85;;;;;;;7.33;94.47;100882.95;1730213;83;21155;-65
2022/11/05 12:04:33;;;;;;;21.52;10.40;;;;;;;7.35;94.49;100887.73;1727277;81;21083;-62
2022/11/05 12:07:18;;;;;;;20.32;11.12;;;;;;;7.40;94.45;100881.78;1730286;83;21660;-62
2022/11/05 12:10:12;;;;;;;23.32;11.25;;;;;;;7.43;94.39;100876.85;1737873;82;21146;-62
2022/11/05 12:12:59;;;;;;;21.42;11.65;;;;;;;7.44;94.29;100878.55;1730109;81;21220;-65
2022/11/05 12:15:55;;;;;;;21.37;11.53;;;;;;;7.45;94.12;100887.08;1727234;82;21127;-63
2022/11/05 12:18:48;;;;;;;23.57;11.15;;;;;;;7.44;94.07;100885.38;1729695;83;21106;-65
2022/11/05 12:21:32;;;;;;;24.27;11.90;;;;;;;7.46;94.03;100872.94;1721038;81;21589;-63
2022/11/05 12:24:19;;;;;;;30.25;15.53;;;;;;;7.48;93.77;100881.80;1759486;81;21189;-66
2022/11/05 12:27:10;;;;;;;26.45;12.60;;;;;;;7.46;93.62;100883.84;1731540;82;21226;-64
2022/11/05 12:29:54;;;;;;;23.10;11.85;;;;;;;7.44;93.55;100880.43;1698951;81;21210;-66
2022/11/05 12:32:37;;;;;;;28.23;13.10;;;;;;;7.42;93.51;100882.47;1732452;81;21559;-62